Time;durP1;ratioP1;P1;durP2;ratioP2;P2;SDS_P1;SDS_P2;PMS_P1;PMS_P2;Temp;Humidity;BMP_temperature;BMP_pressure;BME280_temperature;BME280_humidity;BME280_pressure;Samples;Min_cycle;Max_cycle;Signal;HPM_P1;HPM_P2
2023/04/23 00:01:40;;;;;;;39.63;25.17;;;8.50;99.90;;;;;;4945156;28;20419;-87
2023/04/23 00:04:08;;;;;;;34.65;24.17;;;8.40;99.90;;;;;;4959905;28;20625;-89
2023/04/23 00:06:34;;;;;;;30.92;22.77;;;8.50;99.90;;;;;;4960929;28;20778;-87
2023/04/23 00:09:02;;;;;;;31.95;23.42;;;8.40;99.90;;;;;;4968264;28;20061;-87
2023/04/23 00:11:28;;;;;;;35.60;23.77;;;8.30;99.90;;;;;;4963871;28;20050;-87
2023/04/23 00:13:54;;;;;;;36.47;23.65;;;8.30;99.90;;;;;;4961791;28;20465;-89
2023/04/23 00:16:21;;;;;;;29.30;23.30;;;8.20;99.90;;;;;;4959420;28;20055;-84
2023/04/23 00:18:46;;;;;;;27.58;23.00;;;8.30;99.90;;;;;;4935126;28;20186;-87
2023/04/23 00:21:12;;;;;;;30.50;24.35;;;11.00;99.90;;;;;;4960965;28;20130;-89
2023/04/23 00:23:38;;;;;;;33.35;24.20;;;11.00;99.90;;;;;;4962214;28;20054;-86
2023/04/23 00:26:05;;;;;;;30.83;23.65;;;8.90;99.90;;;;;;4942769;28;20131;-88
2023/04/23 00:28:31;;;;;;;31.38;24.15;;;8.30;99.90;;;;;;4946619;28;20418;-89
2023/04/23 00:30:57;;;;;;;30.50;23.67;;;8.00;99.90;;;;;;4958789;28;20050;-83
2023/04/23 00:33:22;;;;;;;30.10;23.65;;;8.20;99.90;;;;;;4954496;28;20057;-86
2023/04/23 00:35:48;;;;;;;30.48;23.92;;;8.10;99.90;;;;;;4959716;29;20407;-89
2023/04/23 00:38:14;;;;;;;29.23;23.30;;;10.20;99.90;;;;;;4944249;28;20459;-86
2023/04/23 00:40:39;;;;;;;33.75;24.20;;;10.10;99.90;;;;;;4961717;28;20138;-88
2023/04/23 00:43:06;;;;;;;29.17;23.02;;;9.30;99.90;;;;;;4937341;28;20046;-88
2023/04/23 00:45:32;;;;;;;33.50;24.55;;;7.90;99.90;;;;;;4939333;28;20050;-86
2023/04/23 00:48:01;;;;;;;32.95;24.42;;;8.10;99.90;;;;;;4960391;28;20507;-88
2023/04/23 00:50:27;;;;;;;29.27;23.35;;;8.30;99.90;;;;;;4929795;28;20086;-84
2023/04/23 00:52:53;;;;;;;28.92;23.77;;;7.90;99.90;;;;;;4945770;28;20094;-89
2023/04/23 00:55:23;;;;;;;34.75;23.77;;;8.00;99.90;;;;;;4967815;28;20098;-84
2023/04/23 00:57:49;;;;;;;29.52;23.17;;;8.00;99.90;;;;;;4965379;28;20117;-88
2023/04/23 01:00:16;;;;;;;31.52;23.05;;;7.80;99.90;;;;;;4966116;28;20057;-85
2023/04/23 01:02:43;;;;;;;30.33;22.85;;;7.90;99.90;;;;;;4932144;28;20121;-87
2023/04/23 01:05:11;;;;;;;31.25;23.65;;;7.30;99.90;;;;;;4948198;28;20567;-85
2023/04/23 01:07:42;;;;;;;29.80;22.15;;;9.90;99.90;;;;;;4926529;28;20086;-83
2023/04/23 01:10:09;;;;;;;28.80;21.90;;;9.80;99.90;;;;;;4963744;28;20134;-85
2023/04/23 01:12:35;;;;;;;29.23;22.52;;;7.90;99.90;;;;;;4965364;28;20047;-81
2023/04/23 01:15:01;;;;;;;33.25;24.65;;;9.00;99.90;;;;;;4940178;28;20050;-84
2023/04/23 01:17:27;;;;;;;31.90;23.83;;;7.90;99.90;;;;;;4955203;28;20050;-86
2023/04/23 01:19:55;;;;;;;28.80;22.08;;;9.50;99.90;;;;;;4932769;28;20057;-86
2023/04/23 01:22:21;;;;;;;30.45;22.65;;;8.90;99.90;;;;;;4945638;28;20508;-83
2023/04/23 01:24:47;;;;;;;36.30;25.33;;;7.50;99.90;;;;;;4966644;28;20130;-83
2023/04/23 01:27:13;;;;;;;33.10;23.83;;;8.20;99.90;;;;;;4947264;28;20050;-87
2023/04/23 01:29:40;;;;;;;34.05;25.33;;;10.20;99.90;;;;;;4943961;28;20050;-88
2023/04/23 01:32:07;;;;;;;35.05;25.80;;;10.30;99.90;;;;;;4962371;28;20117;-88
2023/04/23 01:34:34;;;;;;;34.70;25.13;;;7.80;99.90;;;;;;4947724;28;20045;-87
2023/04/23 01:37:02;;;;;;;36.30;25.48;;;7.80;99.90;;;;;;4963562;28;20066;-88
2023/04/23 01:39:27;;;;;;;40.20;27.10;;;8.00;99.90;;;;;;4946536;28;20058;-85
2023/04/23 01:41:55;;;;;;;37.55;26.77;;;7.80;99.90;;;;;;4951805;28;20720;-87
2023/04/23 01:44:21;;;;;;;37.05;26.60;;;7.70;99.90;;;;;;4936127;28;20058;-86
2023/04/23 01:46:47;;;;;;;38.70;26.50;;;7.80;99.90;;;;;;4962566;28;20524;-86
2023/04/23 01:49:13;;;;;;;42.65;29.45;;;9.90;99.90;;;;;;4940604;28;20079;-88
2023/04/23 01:51:39;;;;;;;45.30;28.55;;;;;;;;;;4960939;28;20083;-87
2023/04/23 01:54:06;;;;;;;42.95;29.58;;;7.70;99.90;;;;;;4940627;29;20054;-87
2023/04/23 01:56:34;;;;;;;39.58;29.00;;;7.70;99.90;;;;;;4960376;28;20082;-88
2023/04/23 01:59:00;;;;;;;38.58;27.63;;;7.10;99.90;;;;;;4942884;28;20047;-87
2023/04/23 02:01:45;;;;;;;41.95;28.60;;;7.80;99.90;;;;;;4947346;28;20133;-85
2023/04/23 02:04:15;;;;;;;43.40;31.42;;;7.70;99.90;;;;;;4971912;28;20043;-87
2023/04/23 02:06:43;;;;;;;46.28;32.28;;;9.00;99.90;;;;;;4965704;28;20046;-88
2023/04/23 02:09:10;;;;;;;44.83;30.67;;;9.50;99.90;;;;;;4983767;28;20078;-86
2023/04/23 02:11:36;;;;;;;44.05;31.75;;;7.90;99.90;;;;;;4974056;28;20070;-85
2023/04/23 02:14:02;;;;;;;48.38;33.53;;;9.70;99.90;;;;;;4971897;28;20514;-86
2023/04/23 02:16:28;;;;;;;47.63;34.28;;;7.60;99.90;;;;;;4960997;28;20655;-85
2023/04/23 02:18:54;;;;;;;52.55;34.97;;;7.70;99.90;;;;;;4959785;28;20054;-88
2023/04/23 02:21:23;;;;;;;51.70;34.28;;;6.50;99.90;;;;;;4959585;28;20058;-85
2023/04/23 02:23:48;;;;;;;50.50;35.45;;;7.50;99.90;;;;;;4943821;28;20051;-84
2023/04/23 02:26:14;;;;;;;50.05;34.88;;;9.20;99.90;;;;;;4970560;28;20058;-85
2023/04/23 02:28:40;;;;;;;52.17;34.67;;;7.60;99.90;;;;;;4943552;29;20061;-84
2023/04/23 02:31:06;;;;;;;54.10;34.92;;;8.70;99.90;;;;;;4961657;28;20047;-83
2023/04/23 02:33:32;;;;;;;55.42;34.53;;;7.70;99.90;;;;;;4967042;28;20043;-85
2023/04/23 02:35:57;;;;;;;57.72;36.40;;;9.30;99.90;;;;;;4926266;28;20141;-83
2023/04/23 02:38:23;;;;;;;58.55;38.05;;;7.40;99.90;;;;;;4946503;28;20047;-83
2023/04/23 02:40:49;;;;;;;63.58;40.25;;;7.50;99.90;;;;;;4962594;28;20406;-86
2023/04/23 02:43:14;;;;;;;67.15;43.25;;;10.50;99.90;;;;;;4963737;28;20046;-83
2023/04/23 02:45:40;;;;;;;74.25;44.58;;;7.50;99.90;;;;;;4939175;28;20486;-82
2023/04/23 02:48:06;;;;;;;80.68;46.70;;;10.20;99.90;;;;;;4946943;29;20411;-88
2023/04/23 02:50:37;;;;;;;89.13;51.83;;;7.50;99.90;;;;;;4965613;28;20059;-86
2023/04/23 02:53:04;;;;;;;82.35;49.15;;;5.70;99.90;;;;;;4949066;28;20133;-85
2023/04/23 02:55:30;;;;;;;87.53;49.95;;;9.90;99.90;;;;;;4946114;28;20070;-86
2023/04/23 02:57:57;;;;;;;83.28;47.90;;;7.40;99.90;;;;;;4952883;28;20041;-86
2023/04/23 03:00:24;;;;;;;84.03;50.42;;;7.50;99.90;;;;;;4960045;28;20393;-87
2023/04/23 03:02:50;;;;;;;80.45;48.65;;;9.40;99.90;;;;;;4949893;28;20407;-86
2023/04/23 03:05:16;;;;;;;95.05;49.20;;;7.70;99.90;;;;;;4946003;28;20057;-88
2023/04/23 03:07:41;;;;;;;89.80;49.97;;;7.60;99.90;;;;;;4942947;29;20138;-87
2023/04/23 03:10:07;;;;;;;86.30;48.33;;;9.80;99.90;;;;;;4959653;28;20055;-87
2023/04/23 03:12:33;;;;;;;99.63;49.67;;;7.50;99.90;;;;;;4943594;28;20102;-87
2023/04/23 03:14:59;;;;;;;92.57;50.67;;;9.40;99.90;;;;;;4952935;28;20054;-89
2023/04/23 03:17:25;;;;;;;90.32;52.03;;;8.40;99.90;;;;;;4940927;28;20047;-87
2023/04/23 03:19:50;;;;;;;104.97;54.28;;;7.30;99.90;;;;;;4960479;28;20090;-88
2023/04/23 03:22:16;;;;;;;84.53;51.20;;;8.20;99.90;;;;;;4938940;28;20043;-85
2023/04/23 03:24:41;;;;;;;83.05;50.72;;;9.90;99.90;;;;;;4947078;28;20055;-86
2023/04/23 03:27:07;;;;;;;89.72;50.72;;;7.50;99.90;;;;;;4962901;28;20419;-88
2023/04/23 03:29:33;;;;;;;81.47;50.95;;;9.70;99.90;;;;;;4960667;28;20046;-87
2023/04/23 03:31:58;;;;;;;91.80;55.15;;;7.30;99.90;;;;;;4946360;28;20046;-85
2023/04/23 03:34:24;;;;;;;86.60;52.08;;;7.40;99.90;;;;;;4944221;28;20416;-87
2023/04/23 03:36:50;;;;;;;97.28;56.15;;;6.90;99.90;;;;;;4960501;28;20394;-88
2023/04/23 03:39:16;;;;;;;90.63;55.10;;;7.30;99.90;;;;;;4965920;28;20050;-87
2023/04/23 03:41:42;;;;;;;88.30;54.33;;;7.30;99.90;;;;;;4947816;28;20241;-85
2023/04/23 03:44:08;;;;;;;84.65;53.35;;;10.10;99.90;;;;;;4974317;28;20115;-83
2023/04/23 03:46:36;;;;;;;83.75;52.88;;;9.30;99.90;;;;;;4966960;28;20487;-88
2023/04/23 03:49:02;;;;;;;92.70;54.38;;;7.50;99.90;;;;;;4946073;28;20105;-85
2023/04/23 03:51:27;;;;;;;95.00;55.58;;;7.50;99.90;;;;;;4941982;28;20043;-86
2023/04/23 03:53:54;;;;;;;93.30;55.38;;;8.90;99.90;;;;;;4957915;28;20086;-88
2023/04/23 03:56:20;;;;;;;91.00;54.72;;;7.40;99.90;;;;;;4941037;28;20094;-81
2023/04/23 03:58:45;;;;;;;92.90;57.42;;;9.10;99.90;;;;;;4962787;28;20051;-85
2023/04/23 04:01:11;;;;;;;95.00;56.78;;;9.30;99.90;;;;;;4941173;28;20046;-85
2023/04/23 04:03:37;;;;;;;92.85;58.08;;;10.50;99.90;;;;;;4960833;28;20062;-83
2023/04/23 04:06:03;;;;;;;105.72;59.65;;;10.00;99.90;;;;;;4960460;28;20129;-84
2023/04/23 04:08:29;;;;;;;103.63;62.08;;;7.50;99.90;;;;;;4945451;28;20499;-82
2023/04/23 04:10:55;;;;;;;100.53;59.67;;;9.10;99.90;;;;;;4941497;29;20051;-84
2023/04/23 04:13:21;;;;;;;101.57;61.03;;;7.60;99.90;;;;;;4956690;28;20055;-83
2023/04/23 04:15:46;;;;;;;109.60;61.00;;;8.00;99.90;;;;;;4961836;28;20074;-83
2023/04/23 04:18:12;;;;;;;108.93;62.38;;;7.60;99.90;;;;;;4944852;28;20043;-87
2023/04/23 04:20:43;;;;;;;108.97;62.88;;;7.50;99.90;;;;;;4943477;28;20086;-86
2023/04/23 04:23:08;;;;;;;106.07;62.80;;;7.60;99.90;;;;;;4944572;28;20054;-87
2023/04/23 04:25:38;;;;;;;103.60;62.63;;;9.50;99.90;;;;;;4968434;28;20426;-86
2023/04/23 04:28:08;;;;;;;106.57;60.65;;;9.70;99.90;;;;;;4964089;28;20043;-86
2023/04/23 04:30:34;;;;;;;109.40;63.70;;;7.70;99.90;;;;;;4964865;28;20058;-88
2023/04/23 04:33:00;;;;;;;103.43;60.45;;;7.60;99.90;;;;;;4948595;28;20491;-88
2023/04/23 04:35:26;;;;;;;110.18;62.92;;;9.00;99.90;;;;;;4942767;28;20059;-84
2023/04/23 04:37:52;;;;;;;102.00;59.80;;;8.20;99.90;;;;;;4986870;28;20053;-86
2023/04/23 04:40:18;;;;;;;99.10;60.72;;;9.40;99.90;;;;;;4965417;28;20055;-87
2023/04/23 04:42:45;;;;;;;102.43;61.67;;;7.60;99.90;;;;;;4948441;28;20494;-89
2023/04/23 04:45:11;;;;;;;100.32;58.45;;;7.60;99.90;;;;;;4963087;28;20137;-86
2023/04/23 04:47:37;;;;;;;108.60;62.90;;;9.40;99.90;;;;;;4960845;28;20058;-89
2023/04/23 04:50:04;;;;;;;92.97;57.90;;;7.80;99.90;;;;;;4964817;28;20050;-84
2023/04/23 04:52:30;;;;;;;93.82;59.22;;;7.80;99.90;;;;;;4964002;28;20051;-85
2023/04/23 04:54:55;;;;;;;98.15;60.63;;;7.60;99.90;;;;;;4944946;29;20047;-83
2023/04/23 04:57:21;;;;;;;92.65;57.85;;;10.00;99.90;;;;;;4957635;28;20386;-86
2023/04/23 04:59:48;;;;;;;91.25;59.42;;;9.20;99.90;;;;;;4964770;28;20047;-84
2023/04/23 05:02:15;;;;;;;92.80;58.28;;;;;;;;;;4947627;28;20048;-87
2023/04/23 05:04:40;;;;;;;96.95;58.60;;;7.80;99.90;;;;;;4946884;28;20063;-87
2023/04/23 05:07:06;;;;;;;100.22;59.42;;;7.80;99.90;;;;;;4961606;28;20451;-86
2023/04/23 05:09:32;;;;;;;89.18;54.95;;;8.40;99.90;;;;;;4961273;28;20057;-85
2023/04/23 05:11:58;;;;;;;79.85;52.40;;;7.70;99.90;;;;;;4965204;28;20093;-86
2023/04/23 05:14:25;;;;;;;84.30;54.97;;;7.80;99.90;;;;;;4956601;28;20102;-84
2023/04/23 05:16:51;;;;;;;80.32;52.08;;;10.30;99.90;;;;;;4971781;28;20039;-87
2023/04/23 05:19:16;;;;;;;74.22;50.10;;;8.40;99.90;;;;;;4955963;28;20387;-85
2023/04/23 05:21:42;;;;;;;81.15;54.13;;;10.20;99.90;;;;;;4963784;28;20555;-87
2023/04/23 05:24:08;;;;;;;83.68;52.65;;;10.50;99.90;;;;;;4947826;28;20055;-85
2023/04/23 05:26:37;;;;;;;78.32;52.05;;;7.90;99.90;;;;;;4963705;28;20065;-87
2023/04/23 05:29:03;;;;;;;79.72;52.60;;;7.90;99.90;;;;;;4963582;28;20043;-86
2023/04/23 05:31:28;;;;;;;81.82;50.70;;;10.30;99.90;;;;;;4944494;28;20058;-82
2023/04/23 05:33:54;;;;;;;73.32;49.80;;;10.70;99.90;;;;;;4967387;28;20399;-82
2023/04/23 05:36:20;;;;;;;79.85;49.97;;;7.30;99.90;;;;;;4960019;28;20207;-82
2023/04/23 05:38:46;;;;;;;78.75;49.75;;;9.50;99.90;;;;;;4961400;28;20067;-82
2023/04/23 05:41:11;;;;;;;76.43;50.50;;;8.70;99.90;;;;;;4960242;28;20051;-86
2023/04/23 05:43:37;;;;;;;76.55;51.10;;;10.40;99.90;;;;;;4952423;28;20054;-85
2023/04/23 05:46:06;;;;;;;74.20;49.25;;;7.90;99.90;;;;;;4966526;28;20055;-80
2023/04/23 05:48:32;;;;;;;71.85;48.55;;;7.90;99.90;;;;;;4961826;28;20051;-87
2023/04/23 05:50:58;;;;;;;77.85;50.35;;;8.80;99.90;;;;;;4962589;28;20055;-86
2023/04/23 05:53:24;;;;;;;78.82;50.83;;;7.90;99.90;;;;;;4940627;28;20537;-88
2023/04/23 05:55:50;;;;;;;74.60;48.88;;;7.90;99.90;;;;;;4944271;28;20048;-88
2023/04/23 05:58:17;;;;;;;68.32;47.75;;;10.40;99.90;;;;;;4966462;28;20074;-88
2023/04/23 06:00:44;;;;;;;78.10;49.17;;;10.10;99.90;;;;;;4929824;28;20046;-84
2023/04/23 06:03:09;;;;;;;78.43;50.17;;;8.00;99.90;;;;;;4948487;28;20070;-87
2023/04/23 06:05:36;;;;;;;80.35;51.05;;;8.10;99.90;;;;;;4946071;28;20047;-87
2023/04/23 06:08:05;;;;;;;79.50;51.95;;;8.10;99.90;;;;;;4929532;29;20137;-86
2023/04/23 06:10:34;;;;;;;79.75;50.60;;;8.30;99.90;;;;;;4951003;28;20047;-86
2023/04/23 06:13:03;;;;;;;82.15;51.60;;;8.10;99.90;;;;;;4943841;28;20062;-87
2023/04/23 06:15:29;;;;;;;71.95;51.58;;;10.50;99.90;;;;;;4960295;28;20055;-86
2023/04/23 06:17:55;;;;;;;77.40;51.53;;;8.70;99.90;;;;;;4943434;29;20047;-86
2023/04/23 06:20:22;;;;;;;82.72;52.50;;;10.10;99.90;;;;;;4961464;28;20080;-83
2023/04/23 06:22:48;;;;;;;74.85;50.03;;;8.40;99.90;;;;;;4969936;28;20573;-87
2023/04/23 06:25:14;;;;;;;78.40;52.53;;;8.50;99.90;;;;;;4963082;28;20054;-88
2023/04/23 06:27:39;;;;;;;80.65;53.10;;;8.50;99.90;;;;;;4962113;28;20050;-87
2023/04/23 06:30:06;;;;;;;82.60;54.45;;;8.60;99.90;;;;;;4943893;29;20073;-86
2023/04/23 06:32:34;;;;;;;78.85;51.45;;;8.60;99.90;;;;;;4959560;28;20043;-88
2023/04/23 06:35:00;;;;;;;84.40;52.05;;;8.60;99.90;;;;;;4938499;28;20054;-88
2023/04/23 06:37:27;;;;;;;76.05;50.75;;;8.70;99.90;;;;;;4959813;28;20506;-85
2023/04/23 06:39:53;;;;;;;79.57;52.47;;;11.10;99.90;;;;;;4952531;28;20586;-89
2023/04/23 06:42:19;;;;;;;85.13;57.92;;;;;;;;;;4930753;29;20569;-86
2023/04/23 06:44:47;;;;;;;72.13;48.97;;;8.80;99.90;;;;;;4962262;28;20055;-88
2023/04/23 06:47:14;;;;;;;76.32;50.00;;;8.80;99.90;;;;;;4947290;28;20054;-86
2023/04/23 06:49:40;;;;;;;84.75;52.60;;;11.30;99.90;;;;;;4949120;28;20063;-85
2023/04/23 06:52:05;;;;;;;74.95;49.55;;;8.90;99.90;;;;;;4956956;28;20058;-86
2023/04/23 06:54:32;;;;;;;78.47;49.92;;;9.00;99.90;;;;;;4974153;28;20123;-82
2023/04/23 06:56:57;;;;;;;79.60;52.40;;;9.00;99.90;;;;;;4950999;29;20043;-84
2023/04/23 06:59:23;;;;;;;71.13;47.80;;;11.30;99.90;;;;;;4957433;28;20078;-85
2023/04/23 07:01:49;;;;;;;77.72;49.15;;;9.10;99.90;;;;;;4964006;28;20106;-86
2023/04/23 07:04:14;;;;;;;76.10;49.88;;;11.80;99.90;;;;;;4963140;28;20069;-85
2023/04/23 07:06:40;;;;;;;80.22;50.65;;;9.10;99.90;;;;;;4964325;28;20047;-82
2023/04/23 07:09:08;;;;;;;73.63;49.20;;;9.90;99.90;;;;;;4951019;28;20050;-83
2023/04/23 07:11:35;;;;;;;71.35;47.05;;;10.80;99.90;;;;;;4956972;28;20513;-83
2023/04/23 07:14:04;;;;;;;74.03;49.55;;;11.20;99.90;;;;;;4962672;28;20047;-85
2023/04/23 07:16:32;;;;;;;74.43;48.70;;;9.40;99.90;;;;;;4931725;28;20065;-86
2023/04/23 07:19:02;;;;;;;66.15;45.85;;;10.90;99.90;;;;;;4955412;28;20163;-87
2023/04/23 07:21:28;;;;;;;67.57;45.97;;;12.20;99.90;;;;;;4964738;28;20073;-86
2023/04/23 07:23:57;;;;;;;68.72;46.53;;;9.90;99.90;;;;;;4960338;28;20098;-84
2023/04/23 07:26:24;;;;;;;66.03;46.50;;;12.40;99.90;;;;;;4947031;29;20476;-88
2023/04/23 07:28:51;;;;;;;65.93;45.15;;;10.00;99.90;;;;;;4944022;28;20422;-86
2023/04/23 07:31:17;;;;;;;65.75;45.83;;;10.10;99.90;;;;;;4958865;28;20047;-88
2023/04/23 07:33:44;;;;;;;66.50;47.15;;;12.30;99.90;;;;;;4955433;28;20053;-86
2023/04/23 07:36:10;;;;;;;60.88;44.17;;;10.20;99.90;;;;;;4945865;28;20054;-88
2023/04/23 07:38:36;;;;;;;57.85;42.35;;;;;;;;;;4951107;28;20055;-87
2023/04/23 07:41:01;;;;;;;60.40;44.13;;;10.20;99.90;;;;;;4962749;28;20507;-89
2023/04/23 07:43:27;;;;;;;59.40;42.38;;;11.40;99.90;;;;;;4945803;28;20050;-89
2023/04/23 07:45:56;;;;;;;59.28;41.10;;;12.50;99.90;;;;;;4961888;28;20138;-85
2023/04/23 07:48:21;;;;;;;55.33;40.75;;;10.40;99.90;;;;;;4961357;28;20138;-87
2023/04/23 07:50:47;;;;;;;54.90;40.63;;;10.70;99.90;;;;;;4966418;28;20057;-86
2023/04/23 07:53:13;;;;;;;59.28;40.95;;;13.00;99.90;;;;;;4968329;28;20504;-86
2023/04/23 07:55:39;;;;;;;55.72;41.88;;;12.80;99.90;;;;;;4961060;28;20105;-87
2023/04/23 07:58:05;;;;;;;55.10;40.17;;;;;;;;;;4951215;28;20121;-86
2023/04/23 08:00:31;;;;;;;54.67;40.83;;;10.50;99.90;;;;;;4961724;28;20065;-87
2023/04/23 08:02:57;;;;;;;51.80;38.95;;;11.00;99.90;;;;;;4942464;28;20047;-86
2023/04/23 08:05:23;;;;;;;50.05;38.53;;;13.00;99.90;;;;;;4966610;28;20098;-88
2023/04/23 08:07:49;;;;;;;53.05;38.10;;;12.30;99.90;;;;;;4961223;28;20077;-88
2023/04/23 08:10:15;;;;;;;48.58;36.45;;;10.80;99.90;;;;;;4960609;28;20495;-86
2023/04/23 08:12:40;;;;;;;50.28;38.40;;;10.90;99.90;;;;;;4959414;28;20130;-85
2023/04/23 08:15:07;;;;;;;45.47;33.67;;;10.90;99.90;;;;;;4951970;28;20098;-85
2023/04/23 08:17:32;;;;;;;42.72;33.85;;;11.00;99.90;;;;;;4936646;29;20483;-86
2023/04/23 08:19:58;;;;;;;45.10;34.50;;;11.10;99.90;;;;;;4961367;28;20114;-86
2023/04/23 08:22:23;;;;;;;42.33;31.63;;;13.20;99.90;;;;;;4962511;28;20049;-83
2023/04/23 08:24:49;;;;;;;41.38;31.40;;;11.20;99.90;;;;;;4945443;28;20500;-84
2023/04/23 08:27:15;;;;;;;41.85;32.08;;;13.20;99.90;;;;;;4966714;28;20054;-81
2023/04/23 08:29:40;;;;;;;44.42;32.47;;;11.20;99.90;;;;;;4955673;28;20055;-81
2023/04/23 08:32:06;;;;;;;38.80;30.45;;;12.10;99.90;;;;;;4948296;28;20126;-82
2023/04/23 08:34:31;;;;;;;41.35;31.35;;;12.90;99.90;;;;;;4970668;28;20043;-85
2023/04/23 08:36:57;;;;;;;40.08;31.02;;;11.50;99.90;;;;;;4943145;28;20051;-83
2023/04/23 08:39:22;;;;;;;39.30;32.17;;;11.60;99.90;;;;;;4941673;29;20483;-85
2023/04/23 08:41:54;;;;;;;41.33;31.88;;;14.20;99.90;;;;;;4958930;28;20139;-84
2023/04/23 08:44:24;;;;;;;35.90;28.50;;;11.70;99.90;;;;;;4963910;28;20059;-81
2023/04/23 08:46:52;;;;;;;33.40;27.92;;;14.00;99.90;;;;;;4958202;28;20047;-89
2023/04/23 08:49:19;;;;;;;34.03;27.77;;;13.20;99.90;;;;;;4962748;28;20058;-90
2023/04/23 08:51:54;;;;;;;37.97;29.85;;;12.50;99.90;;;;;;4962560;28;20049;-90
2023/04/23 08:54:32;;;;;;;36.15;26.52;;;12.10;99.90;;;;;;4957670;28;20674;-89
2023/04/23 08:56:58;;;;;;;34.65;26.13;;;13.90;99.90;;;;;;4959291;28;20088;-89
2023/04/23 08:59:29;;;;;;;33.47;25.95;;;12.20;99.90;;;;;;4941207;28;20051;-85
2023/04/23 09:01:56;;;;;;;34.65;26.75;;;12.00;99.90;;;;;;4957734;28;20051;-87
2023/04/23 09:04:23;;;;;;;31.98;25.50;;;13.30;99.90;;;;;;4960889;28;20052;-89
2023/04/23 09:06:49;;;;;;;31.05;25.02;;;13.60;99.90;;;;;;4962714;28;20055;-90
2023/04/23 09:09:18;;;;;;;28.63;23.50;;;13.80;99.90;;;;;;4959419;28;20051;-90
2023/04/23 09:11:44;;;;;;;28.88;22.70;;;13.80;99.90;;;;;;4966045;28;20066;-88
2023/04/23 09:14:12;;;;;;;25.02;20.85;;;15.10;99.90;;;;;;4942609;28;20055;-90
2023/04/23 09:16:39;;;;;;;27.38;21.33;;;13.10;99.90;;;;;;4962013;28;20051;-92
2023/04/23 09:19:08;;;;;;;27.67;21.08;;;13.40;99.90;;;;;;4943857;28;20051;-88
2023/04/23 09:21:37;;;;;;;26.77;20.50;;;14.50;99.90;;;;;;4962329;28;20517;-90
2023/04/23 09:24:10;;;;;;;27.38;22.08;;;13.30;99.90;;;;;;4946577;28;20164;-87
2023/04/23 09:26:42;;;;;;;25.10;18.25;;;13.20;99.90;;;;;;4961019;28;20047;-87
2023/04/23 09:29:29;;;;;;;18.77;15.43;;;13.40;99.90;;;;;;4954760;28;20508;-88
2023/04/23 09:32:08;;;;;;;24.40;17.30;;;13.30;99.90;;;;;;4932142;28;20096;-89
2023/04/23 09:34:38;;;;;;;20.73;15.43;;;13.40;99.90;;;;;;4961033;28;20055;-89
2023/04/23 09:37:06;;;;;;;21.48;14.93;;;13.40;99.90;;;;;;4936940;28;20142;-89
2023/04/23 09:39:33;;;;;;;20.15;15.95;;;14.60;99.90;;;;;;4955309;28;20051;-89
2023/04/23 09:42:03;;;;;;;18.45;12.98;;;13.60;99.90;;;;;;4953744;28;20054;-89
2023/04/23 09:44:33;;;;;;;17.73;13.20;;;13.70;99.90;;;;;;4971434;28;20035;-91
2023/04/23 09:47:09;;;;;;;17.33;13.02;;;13.80;99.90;;;;;;4946701;28;20482;-91
2023/04/23 09:49:48;;;;;;;17.38;11.95;;;15.00;99.90;;;;;;4944175;29;20058;-89
2023/04/23 09:52:13;;;;;;;16.42;11.55;;;13.80;99.90;;;;;;4963511;28;20453;-88
2023/04/23 09:54:42;;;;;;;15.60;11.30;;;16.00;99.90;;;;;;4948722;28;20559;-90
2023/04/23 09:57:07;;;;;;;18.77;11.88;;;13.90;99.90;;;;;;4963952;28;20058;-88
2023/04/23 09:59:37;;;;;;;17.10;10.27;;;14.00;99.90;;;;;;4963548;28;20142;-91
2023/04/23 10:02:05;;;;;;;12.18;9.77;;;14.10;99.90;;;;;;4977786;28;20067;-85
2023/04/23 10:04:35;;;;;;;18.67;10.20;;;14.20;99.90;;;;;;4946117;29;20078;-91
2023/04/23 10:07:06;;;;;;;14.35;8.75;;;14.30;99.90;;;;;;4930810;28;20051;-91
2023/04/23 10:09:32;;;;;;;11.55;7.78;;;14.40;99.90;;;;;;4964922;28;20667;-90
2023/04/23 10:12:01;;;;;;;18.20;8.55;;;14.80;99.90;;;;;;4964370;28;20600;-92
2023/04/23 10:14:28;;;;;;;12.73;8.43;;;15.90;99.90;;;;;;4972543;28;20104;-91
2023/04/23 10:17:02;;;;;;;11.23;6.90;;;14.70;99.90;;;;;;4963847;28;20047;-91
2023/04/23 10:19:29;;;;;;;13.73;7.45;;;14.90;99.90;;;;;;4961197;28;20046;-91
2023/04/23 10:22:04;;;;;;;12.13;7.38;;;15.00;99.90;;;;;;4968259;28;20051;-86
2023/04/23 10:24:36;;;;;;;12.45;6.55;;;15.00;99.90;;;;;;4970768;28;20081;-88
2023/04/23 10:27:04;;;;;;;15.43;7.18;;;15.20;99.90;;;;;;4963317;28;20054;-91
2023/04/23 10:29:34;;;;;;;10.82;6.07;;;15.30;99.90;;;;;;4963983;28;20454;-88
2023/04/23 10:32:05;;;;;;;11.13;5.93;;;16.00;99.90;;;;;;4955102;28;20063;-92
2023/04/23 10:34:31;;;;;;;12.27;5.35;;;16.30;99.90;;;;;;4979789;28;20057;-93
2023/04/23 10:36:58;;;;;;;13.38;5.60;;;16.20;99.90;;;;;;4962858;28;20046;-87
2023/04/23 10:39:30;;;;;;;10.00;4.53;;;15.60;99.90;;;;;;4986880;28;20046;-87
2023/04/23 10:41:57;;;;;;;11.27;5.70;;;15.80;99.90;;;;;;4963742;28;20130;-85
2023/04/23 10:44:31;;;;;;;9.00;4.93;;;15.80;99.90;;;;;;4972004;28;20051;-89
2023/04/23 10:47:00;;;;;;;11.18;4.95;;;15.90;99.90;;;;;;4963244;28;20052;-90
2023/04/23 10:49:30;;;;;;;10.63;4.40;;;16.00;99.90;;;;;;4963593;28;20525;-86
2023/04/23 10:52:20;;;;;;;10.25;3.88;;;16.10;99.90;;;;;;4963361;28;20187;-90
2023/04/23 10:55:01;;;;;;;10.88;3.70;;;16.40;99.90;;;;;;4942765;29;20043;-83
2023/04/23 10:57:27;;;;;;;8.30;4.53;;;16.30;99.90;;;;;;4970234;28;20582;-90
2023/04/23 10:59:54;;;;;;;11.82;3.50;;;16.30;99.90;;;;;;4940139;29;20043;-88
2023/04/23 11:02:23;;;;;;;8.07;2.97;;;16.20;99.90;;;;;;4963267;28;20055;-88
2023/04/23 11:04:56;;;;;;;10.50;3.45;;;16.10;99.90;;;;;;4973682;28;20078;-91
2023/04/23 11:07:31;;;;;;;9.32;3.33;;;16.00;99.90;;;;;;4964480;28;20062;-90
2023/04/23 11:10:10;;;;;;;12.13;3.20;;;15.90;99.90;;;;;;4967887;28;20055;-89
2023/04/23 11:12:38;;;;;;;9.43;2.90;;;15.90;99.90;;;;;;4944995;28;20062;-90
2023/04/23 11:15:13;;;;;;;10.35;2.80;;;15.80;99.90;;;;;;4966779;28;20062;-87
2023/04/23 11:17:47;;;;;;;11.02;2.70;;;15.70;99.90;;;;;;4949146;28;20458;-88
2023/04/23 11:20:20;;;;;;;9.83;2.87;;;15.70;99.90;;;;;;4944104;28;20138;-86
2023/04/23 11:22:50;;;;;;;6.75;2.22;;;15.70;99.90;;;;;;4943374;28;20055;-89
2023/04/23 11:25:23;;;;;;;4.47;1.77;;;15.80;99.90;;;;;;4967983;28;20054;-89
2023/04/23 11:27:54;;;;;;;7.13;1.90;;;15.80;99.90;;;;;;4978634;28;20055;-89
2023/04/23 11:30:24;;;;;;;8.18;1.92;;;16.00;99.90;;;;;;4954329;28;20069;-88
2023/04/23 11:32:58;;;;;;;5.68;2.30;;;16.00;99.90;;;;;;4974482;28;20046;-86
2023/04/23 11:35:29;;;;;;;5.90;1.85;;;16.20;99.90;;;;;;4988188;28;20181;-86
2023/04/23 11:37:55;;;;;;;6.22;1.90;;;16.40;99.90;;;;;;4927652;29;20043;-83
2023/04/23 11:40:23;;;;;;;5.03;1.75;;;16.60;99.90;;;;;;4963849;28;20130;-86
2023/04/23 11:42:56;;;;;;;4.40;1.50;;;16.90;99.90;;;;;;4948594;28;20833;-83
2023/04/23 11:45:24;;;;;;;6.93;1.67;;;16.80;99.90;;;;;;4951143;28;20059;-90
2023/04/23 11:47:54;;;;;;;4.55;1.50;;;16.80;99.90;;;;;;4943558;29;20407;-92
2023/04/23 11:50:25;;;;;;;4.57;1.50;;;16.70;99.90;;;;;;4960802;28;20059;-90
2023/04/23 11:52:51;;;;;;;4.25;1.35;;;16.80;99.90;;;;;;4963409;28;21057;-89
2023/04/23 11:55:17;;;;;;;6.28;1.63;;;17.90;99.90;;;;;;4952256;28;20051;-92
2023/04/23 11:57:45;;;;;;;6.32;2.38;;;16.70;99.90;;;;;;4958965;28;20046;-90
2023/04/23 12:00:15;;;;;;;12.32;2.72;;;16.80;99.90;;;;;;4960844;28;20498;-89
2023/04/23 12:02:58;;;;;;;4.72;1.35;;;16.90;99.90;;;;;;4959960;28;20632;-90
2023/04/23 12:05:33;;;;;;;8.35;2.38;;;16.90;99.90;;;;;;4943117;28;20448;-92
2023/04/23 12:08:13;;;;;;;8.00;2.08;;;18.80;99.90;;;;;;4965285;28;20058;-86
2023/04/23 12:10:59;;;;;;;5.30;1.85;;;16.80;99.90;;;;;;4946435;28;20047;-91
2023/04/23 12:13:29;;;;;;;5.22;1.67;;;18.50;99.90;;;;;;4970710;28;20070;-91
2023/04/23 12:15:57;;;;;;;4.85;1.80;;;16.80;99.90;;;;;;4954259;28;20061;-83
2023/04/23 12:18:31;;;;;;;7.68;2.00;;;17.00;99.90;;;;;;4962917;28;20082;-91
2023/04/23 12:21:05;;;;;;;4.83;1.50;;;18.20;99.90;;;;;;4962211;28;20092;-88
2023/04/23 12:23:32;;;;;;;6.43;1.30;;;17.30;99.90;;;;;;4950958;28;20051;-88
2023/04/23 12:25:58;;;;;;;6.68;1.30;;;18.40;99.90;;;;;;4938323;29;20431;-93
2023/04/23 12:28:23;;;;;;;8.50;1.63;;;17.30;99.90;;;;;;4961342;28;20055;-91
2023/04/23 12:30:49;;;;;;;8.15;1.80;;;17.40;99.90;;;;;;4953588;28;20411;-91
2023/04/23 12:33:19;;;;;;;6.50;1.55;;;17.40;99.90;;;;;;4951658;28;20059;-92
2023/04/23 12:35:50;;;;;;;6.40;1.42;;;17.40;99.90;;;;;;4942649;29;20563;-91
2023/04/23 12:38:30;;;;;;;6.45;1.13;;;17.40;99.90;;;;;;4959718;28;20051;-84